sensor_id;sensor_type;location;lat;lon;timestamp;P1;durP1;ratioP1;P2;durP2;ratioP2
44048;SDS011;29717;47.028;15.470;2023-05-10T00:00:29;5.50;;;4.28;;
44048;SDS011;29717;47.028;15.470;2023-05-10T00:02:56;4.50;;;4.10;;
44048;SDS011;29717;47.028;15.470;2023-05-10T00:05:25;5.07;;;4.57;;
44048;SDS011;29717;47.028;15.470;2023-05-10T00:07:51;5.38;;;4.35;;
44048;SDS011;29717;47.028;15.470;2023-05-10T00:10:18;5.32;;;4.82;;
44048;SDS011;29717;47.028;15.470;2023-05-10T00:12:45;4.57;;;4.13;;
44048;SDS011;29717;47.028;15.470;2023-05-10T00:15:12;4.90;;;4.30;;
44048;SDS011;29717;47.028;15.470;2023-05-10T00:17:38;5.68;;;4.25;;
44048;SDS011;29717;47.028;15.470;2023-05-10T00:20:06;5.35;;;4.85;;
44048;SDS011;29717;47.028;15.470;2023-05-10T00:22:34;7.28;;;4.88;;
44048;SDS011;29717;47.028;15.470;2023-05-10T00:25:01;6.75;;;4.70;;
44048;SDS011;29717;47.028;15.470;2023-05-10T00:27:28;5.72;;;5.13;;
44048;SDS011;29717;47.028;15.470;2023-05-10T00:29:54;4.57;;;4.18;;
44048;SDS011;29717;47.028;15.470;2023-05-10T00:32:21;6.85;;;4.75;;
44048;SDS011;29717;47.028;15.470;2023-05-10T00:34:48;4.85;;;4.32;;
44048;SDS011;29717;47.028;15.470;2023-05-10T00:37:15;5.28;;;4.70;;
44048;SDS011;29717;47.028;15.470;2023-05-10T00:39:43;5.28;;;4.78;;
44048;SDS011;29717;47.028;15.470;2023-05-10T00:42:10;4.55;;;4.15;;
44048;SDS011;29717;47.028;15.470;2023-05-10T00:44:36;4.75;;;4.07;;
44048;SDS011;29717;47.028;15.470;2023-05-10T00:47:03;5.50;;;4.10;;
44048;SDS011;29717;47.028;15.470;2023-05-10T00:49:30;6.32;;;4.40;;
44048;SDS011;29717;47.028;15.470;2023-05-10T00:51:57;5.00;;;4.50;;
44048;SDS011;29717;47.028;15.470;2023-05-10T00:54:24;4.93;;;4.18;;
44048;SDS011;29717;47.028;15.470;2023-05-10T00:56:52;5.20;;;4.63;;
44048;SDS011;29717;47.028;15.470;2023-05-10T00:59:19;6.18;;;4.70;;
44048;SDS011;29717;47.028;15.470;2023-05-10T01:01:46;4.78;;;4.28;;
44048;SDS011;29717;47.028;15.470;2023-05-10T01:04:13;5.32;;;4.75;;
44048;SDS011;29717;47.028;15.470;2023-05-10T01:06:40;4.78;;;4.32;;
44048;SDS011;29717;47.028;15.470;2023-05-10T01:09:07;4.60;;;4.20;;
44048;SDS011;29717;47.028;15.470;2023-05-10T01:11:35;5.47;;;4.93;;
44048;SDS011;29717;47.028;15.470;2023-05-10T01:14:03;4.93;;;4.28;;
44048;SDS011;29717;47.028;15.470;2023-05-10T01:16:31;7.20;;;4.90;;
44048;SDS011;29717;47.028;15.470;2023-05-10T01:18:58;5.43;;;4.63;;
44048;SDS011;29717;47.028;15.470;2023-05-10T01:21:29;7.72;;;4.30;;
44048;SDS011;29717;47.028;15.470;2023-05-10T01:24:10;6.65;;;5.25;;
44048;SDS011;29717;47.028;15.470;2023-05-10T01:26:45;6.13;;;4.78;;
44048;SDS011;29717;47.028;15.470;2023-05-10T01:29:27;6.75;;;4.30;;
44048;SDS011;29717;47.028;15.470;2023-05-10T01:32:08;6.82;;;5.00;;
44048;SDS011;29717;47.028;15.470;2023-05-10T01:34:39;5.10;;;4.60;;
44048;SDS011;29717;47.028;15.470;2023-05-10T01:37:10;5.18;;;4.68;;
44048;SDS011;29717;47.028;15.470;2023-05-10T01:39:43;7.68;;;4.75;;
44048;SDS011;29717;47.028;15.470;2023-05-10T01:42:14;4.78;;;4.38;;
44048;SDS011;29717;47.028;15.470;2023-05-10T01:44:43;9.88;;;4.22;;
44048;SDS011;29717;47.028;15.470;2023-05-10T01:47:15;5.27;;;4.77;;
44048;SDS011;29717;47.028;15.470;2023-05-10T01:49:43;5.00;;;4.50;;
44048;SDS011;29717;47.028;15.470;2023-05-10T01:52:14;4.97;;;4.40;;
44048;SDS011;29717;47.028;15.470;2023-05-10T01:54:43;5.27;;;4.77;;
44048;SDS011;29717;47.028;15.470;2023-05-10T01:57:11;4.20;;;3.90;;
44048;SDS011;29717;47.028;15.470;2023-05-10T01:59:39;5.38;;;4.80;;
44048;SDS011;29717;47.028;15.470;2023-05-10T02:02:07;6.97;;;4.53;;
44048;SDS011;29717;47.028;15.470;2023-05-10T02:04:39;5.95;;;4.25;;
44048;SDS011;29717;47.028;15.470;2023-05-10T02:07:06;5.27;;;4.10;;
44048;SDS011;29717;47.028;15.470;2023-05-10T02:09:34;4.70;;;4.25;;
44048;SDS011;29717;47.028;15.470;2023-05-10T02:12:01;5.67;;;5.13;;
44048;SDS011;29717;47.028;15.470;2023-05-10T02:14:29;5.47;;;4.70;;
44048;SDS011;29717;47.028;15.470;2023-05-10T02:16:57;6.20;;;4.90;;
44048;SDS011;29717;47.028;15.470;2023-05-10T02:19:25;6.03;;;5.40;;
44048;SDS011;29717;47.028;15.470;2023-05-10T02:21:54;7.07;;;5.40;;
44048;SDS011;29717;47.028;15.470;2023-05-10T02:24:21;6.07;;;5.47;;
44048;SDS011;29717;47.028;15.470;2023-05-10T02:26:49;6.57;;;5.20;;
44048;SDS011;29717;47.028;15.470;2023-05-10T02:29:17;8.77;;;6.20;;
44048;SDS011;29717;47.028;15.470;2023-05-10T02:31:45;7.57;;;6.57;;
44048;SDS011;29717;47.028;15.470;2023-05-10T02:34:12;8.45;;;7.55;;
44048;SDS011;29717;47.028;15.470;2023-05-10T02:36:40;7.07;;;6.00;;
44048;SDS011;29717;47.028;15.470;2023-05-10T02:39:11;6.83;;;5.70;;
44048;SDS011;29717;47.028;15.470;2023-05-10T02:41:38;5.90;;;4.90;;
44048;SDS011;29717;47.028;15.470;2023-05-10T02:44:07;6.17;;;5.47;;
44048;SDS011;29717;47.028;15.470;2023-05-10T02:46:34;8.10;;;5.47;;
44048;SDS011;29717;47.028;15.470;2023-05-10T02:49:02;5.90;;;5.13;;
44048;SDS011;29717;47.028;15.470;2023-05-10T02:51:30;5.77;;;5.10;;
44048;SDS011;29717;47.028;15.470;2023-05-10T02:54:00;5.50;;;4.97;;
44048;SDS011;29717;47.028;15.470;2023-05-10T02:56:33;6.07;;;4.73;;
44048;SDS011;29717;47.028;15.470;2023-05-10T02:59:00;5.13;;;4.63;;
44048;SDS011;29717;47.028;15.470;2023-05-10T03:01:27;5.87;;;5.37;;
44048;SDS011;29717;47.028;15.470;2023-05-10T03:03:54;7.37;;;5.13;;
44048;SDS011;29717;47.028;15.470;2023-05-10T03:06:21;6.07;;;5.30;;
44048;SDS011;29717;47.028;15.470;2023-05-10T03:08:48;6.27;;;5.23;;
44048;SDS011;29717;47.028;15.470;2023-05-10T03:11:23;6.43;;;5.63;;
44048;SDS011;29717;47.028;15.470;2023-05-10T03:13:57;7.57;;;4.90;;
44048;SDS011;29717;47.028;15.470;2023-05-10T03:16:29;6.23;;;5.20;;
44048;SDS011;29717;47.028;15.470;2023-05-10T03:19:01;6.73;;;6.00;;
44048;SDS011;29717;47.028;15.470;2023-05-10T03:21:30;7.20;;;5.60;;
44048;SDS011;29717;47.028;15.470;2023-05-10T03:23:58;8.37;;;5.70;;
44048;SDS011;29717;47.028;15.470;2023-05-10T03:26:26;7.43;;;5.73;;
44048;SDS011;29717;47.028;15.470;2023-05-10T03:28:53;7.13;;;5.50;;
44048;SDS011;29717;47.028;15.470;2023-05-10T03:31:23;8.43;;;5.97;;
44048;SDS011;29717;47.028;15.470;2023-05-10T03:33:50;6.63;;;5.93;;
44048;SDS011;29717;47.028;15.470;2023-05-10T03:36:17;7.20;;;5.93;;
44048;SDS011;29717;47.028;15.470;2023-05-10T03:38:44;7.03;;;5.93;;
44048;SDS011;29717;47.028;15.470;2023-05-10T03:41:11;8.70;;;6.10;;
44048;SDS011;29717;47.028;15.470;2023-05-10T03:43:38;7.70;;;6.53;;
44048;SDS011;29717;47.028;15.470;2023-05-10T03:46:05;8.47;;;6.53;;
44048;SDS011;29717;47.028;15.470;2023-05-10T03:48:33;6.43;;;5.80;;
44048;SDS011;29717;47.028;15.470;2023-05-10T03:51:00;7.87;;;6.23;;
44048;SDS011;29717;47.028;15.470;2023-05-10T03:53:27;12.20;;;5.87;;
44048;SDS011;29717;47.028;15.470;2023-05-10T03:55:54;8.83;;;5.80;;
44048;SDS011;29717;47.028;15.470;2023-05-10T03:58:21;8.73;;;6.10;;
44048;SDS011;29717;47.028;15.470;2023-05-10T04:00:48;6.70;;;5.90;;
44048;SDS011;29717;47.028;15.470;2023-05-10T04:03:15;6.87;;;6.17;;
44048;SDS011;29717;47.028;15.470;2023-05-10T04:05:43;8.67;;;6.00;;
44048;SDS011;29717;47.028;15.470;2023-05-10T04:08:10;8.83;;;6.80;;
44048;SDS011;29717;47.028;15.470;2023-05-10T04:10:37;13.17;;;6.43;;
44048;SDS011;29717;47.028;15.470;2023-05-10T04:13:04;8.27;;;6.53;;
44048;SDS011;29717;47.028;15.470;2023-05-10T04:15:31;7.13;;;6.13;;
44048;SDS011;29717;47.028;15.470;2023-05-10T04:17:58;7.37;;;6.47;;
44048;SDS011;29717;47.028;15.470;2023-05-10T04:20:25;8.30;;;6.97;;
44048;SDS011;29717;47.028;15.470;2023-05-10T04:22:53;11.30;;;6.67;;
44048;SDS011;29717;47.028;15.470;2023-05-10T04:25:20;10.93;;;7.40;;
44048;SDS011;29717;47.028;15.470;2023-05-10T04:27:47;8.47;;;7.13;;
44048;SDS011;29717;47.028;15.470;2023-05-10T04:30:14;8.70;;;6.90;;
44048;SDS011;29717;47.028;15.470;2023-05-10T04:32:45;8.80;;;7.30;;
44048;SDS011;29717;47.028;15.470;2023-05-10T04:35:12;9.70;;;7.60;;
44048;SDS011;29717;47.028;15.470;2023-05-10T04:37:40;7.00;;;6.30;;
44048;SDS011;29717;47.028;15.470;2023-05-10T04:40:09;7.40;;;6.70;;
44048;SDS011;29717;47.028;15.470;2023-05-10T04:42:36;8.82;;;6.50;;
44048;SDS011;29717;47.028;15.470;2023-05-10T04:45:03;11.53;;;7.20;;
44048;SDS011;29717;47.028;15.470;2023-05-10T04:47:30;7.70;;;6.82;;
44048;SDS011;29717;47.028;15.470;2023-05-10T04:49:57;9.73;;;6.40;;
44048;SDS011;29717;47.028;15.470;2023-05-10T04:52:24;8.77;;;6.95;;
44048;SDS011;29717;47.028;15.470;2023-05-10T04:54:51;9.90;;;7.40;;
44048;SDS011;29717;47.028;15.470;2023-05-10T04:57:20;7.77;;;6.57;;
44048;SDS011;29717;47.028;15.470;2023-05-10T04:59:47;12.23;;;6.47;;
44048;SDS011;29717;47.028;15.470;2023-05-10T05:02:14;10.05;;;6.80;;
44048;SDS011;29717;47.028;15.470;2023-05-10T05:04:41;11.25;;;7.45;;
44048;SDS011;29717;47.028;15.470;2023-05-10T05:07:08;9.77;;;7.18;;
44048;SDS011;29717;47.028;15.470;2023-05-10T05:09:34;10.82;;;8.02;;
44048;SDS011;29717;47.028;15.470;2023-05-10T05:12:01;9.02;;;7.13;;
44048;SDS011;29717;47.028;15.470;2023-05-10T05:14:29;11.13;;;7.55;;
44048;SDS011;29717;47.028;15.470;2023-05-10T05:16:56;7.65;;;6.75;;
44048;SDS011;29717;47.028;15.470;2023-05-10T05:19:22;11.25;;;7.20;;
44048;SDS011;29717;47.028;15.470;2023-05-10T05:21:49;10.90;;;7.28;;
44048;SDS011;29717;47.028;15.470;2023-05-10T05:24:16;15.32;;;6.97;;
44048;SDS011;29717;47.028;15.470;2023-05-10T05:26:43;8.75;;;7.07;;
44048;SDS011;29717;47.028;15.470;2023-05-10T05:29:09;13.18;;;7.22;;
44048;SDS011;29717;47.028;15.470;2023-05-10T05:31:38;8.95;;;7.45;;
44048;SDS011;29717;47.028;15.470;2023-05-10T05:34:05;11.98;;;7.45;;
44048;SDS011;29717;47.028;15.470;2023-05-10T05:36:32;12.98;;;7.38;;
44048;SDS011;29717;47.028;15.470;2023-05-10T05:38:58;11.32;;;7.57;;
44048;SDS011;29717;47.028;15.470;2023-05-10T05:41:25;9.90;;;6.80;;
44048;SDS011;29717;47.028;15.470;2023-05-10T05:43:52;10.43;;;7.15;;
44048;SDS011;29717;47.028;15.470;2023-05-10T05:46:19;8.82;;;6.38;;
44048;SDS011;29717;47.028;15.470;2023-05-10T05:48:47;9.35;;;6.95;;
44048;SDS011;29717;47.028;15.470;2023-05-10T05:51:14;8.10;;;6.60;;
44048;SDS011;29717;47.028;15.470;2023-05-10T05:53:40;12.07;;;7.07;;
44048;SDS011;29717;47.028;15.470;2023-05-10T05:56:07;9.88;;;6.80;;
44048;SDS011;29717;47.028;15.470;2023-05-10T05:58:34;10.05;;;6.88;;
44048;SDS011;29717;47.028;15.470;2023-05-10T06:01:01;12.35;;;7.05;;
44048;SDS011;29717;47.028;15.470;2023-05-10T06:03:28;9.35;;;6.68;;
44048;SDS011;29717;47.028;15.470;2023-05-10T06:05:56;8.98;;;6.03;;
44048;SDS011;29717;47.028;15.470;2023-05-10T06:08:23;8.60;;;5.90;;
44048;SDS011;29717;47.028;15.470;2023-05-10T06:10:51;12.02;;;6.75;;
44048;SDS011;29717;47.028;15.470;2023-05-10T06:13:18;7.13;;;5.97;;
44048;SDS011;29717;47.028;15.470;2023-05-10T06:15:44;8.75;;;6.20;;
44048;SDS011;29717;47.028;15.470;2023-05-10T06:18:11;8.07;;;6.65;;
44048;SDS011;29717;47.028;15.470;2023-05-10T06:20:38;7.13;;;6.13;;
44048;SDS011;29717;47.028;15.470;2023-05-10T06:23:09;7.20;;;6.15;;
44048;SDS011;29717;47.028;15.470;2023-05-10T06:25:36;9.75;;;5.90;;
44048;SDS011;29717;47.028;15.470;2023-05-10T06:28:03;10.02;;;6.93;;
44048;SDS011;29717;47.028;15.470;2023-05-10T06:30:29;7.90;;;6.40;;
44048;SDS011;29717;47.028;15.470;2023-05-10T06:32:56;10.85;;;6.18;;
44048;SDS011;29717;47.028;15.470;2023-05-10T06:35:23;10.30;;;6.10;;
44048;SDS011;29717;47.028;15.470;2023-05-10T06:37:50;8.68;;;6.55;;
44048;SDS011;29717;47.028;15.470;2023-05-10T06:40:18;11.38;;;5.75;;
44048;SDS011;29717;47.028;15.470;2023-05-10T06:42:45;11.52;;;6.38;;
44048;SDS011;29717;47.028;15.470;2023-05-10T06:45:12;7.75;;;5.85;;
44048;SDS011;29717;47.028;15.470;2023-05-10T06:47:39;9.93;;;6.32;;
44048;SDS011;29717;47.028;15.470;2023-05-10T06:50:06;7.07;;;6.38;;
44048;SDS011;29717;47.028;15.470;2023-05-10T06:52:33;8.35;;;6.45;;
44048;SDS011;29717;47.028;15.470;2023-05-10T06:55:00;8.35;;;5.93;;
44048;SDS011;29717;47.028;15.470;2023-05-10T06:57:28;11.07;;;6.28;;
44048;SDS011;29717;47.028;15.470;2023-05-10T06:59:55;6.90;;;6.13;;
44048;SDS011;29717;47.028;15.470;2023-05-10T07:02:22;8.77;;;6.45;;
44048;SDS011;29717;47.028;15.470;2023-05-10T07:04:49;7.93;;;5.95;;
44048;SDS011;29717;47.028;15.470;2023-05-10T07:07:16;8.35;;;6.22;;
44048;SDS011;29717;47.028;15.470;2023-05-10T07:09:43;9.80;;;6.20;;
44048;SDS011;29717;47.028;15.470;2023-05-10T07:12:10;7.28;;;6.28;;
44048;SDS011;29717;47.028;15.470;2023-05-10T07:14:39;8.48;;;7.15;;
44048;SDS011;29717;47.028;15.470;2023-05-10T07:17:06;8.07;;;6.03;;
44048;SDS011;29717;47.028;15.470;2023-05-10T07:19:32;7.50;;;6.20;;
44048;SDS011;29717;47.028;15.470;2023-05-10T07:21:59;7.55;;;5.85;;
44048;SDS011;29717;47.028;15.470;2023-05-10T07:24:26;7.72;;;5.75;;
44048;SDS011;29717;47.028;15.470;2023-05-10T07:26:53;8.40;;;6.70;;
44048;SDS011;29717;47.028;15.470;2023-05-10T07:29:20;8.75;;;6.30;;
44048;SDS011;29717;47.028;15.470;2023-05-10T07:31:49;9.35;;;6.40;;
44048;SDS011;29717;47.028;15.470;2023-05-10T07:34:15;7.88;;;5.85;;
44048;SDS011;29717;47.028;15.470;2023-05-10T07:36:42;7.57;;;6.53;;
44048;SDS011;29717;47.028;15.470;2023-05-10T07:39:09;7.47;;;6.15;;
44048;SDS011;29717;47.028;15.470;2023-05-10T07:41:36;7.13;;;6.20;;
44048;SDS011;29717;47.028;15.470;2023-05-10T07:44:04;7.90;;;6.03;;
44048;SDS011;29717;47.028;15.470;2023-05-10T07:46:30;15.73;;;7.15;;
44048;SDS011;29717;47.028;15.470;2023-05-10T07:48:59;7.88;;;6.53;;
44048;SDS011;29717;47.028;15.470;2023-05-10T07:51:25;10.52;;;6.60;;
44048;SDS011;29717;47.028;15.470;2023-05-10T07:53:53;8.50;;;6.35;;
44048;SDS011;29717;47.028;15.470;2023-05-10T07:56:20;7.80;;;5.75;;
44048;SDS011;29717;47.028;15.470;2023-05-10T07:58:47;8.48;;;6.35;;
44048;SDS011;29717;47.028;15.470;2023-05-10T08:01:14;7.18;;;6.38;;
44048;SDS011;29717;47.028;15.470;2023-05-10T08:03:41;7.45;;;6.03;;
44048;SDS011;29717;47.028;15.470;2023-05-10T08:06:11;6.70;;;5.97;;
44048;SDS011;29717;47.028;15.470;2023-05-10T08:08:38;9.55;;;6.45;;
44048;SDS011;29717;47.028;15.470;2023-05-10T08:11:05;7.55;;;6.38;;
44048;SDS011;29717;47.028;15.470;2023-05-10T08:13:32;11.60;;;5.68;;
44048;SDS011;29717;47.028;15.470;2023-05-10T08:15:59;10.95;;;6.22;;
44048;SDS011;29717;47.028;15.470;2023-05-10T08:18:26;10.98;;;6.13;;
44048;SDS011;29717;47.028;15.470;2023-05-10T08:20:53;7.55;;;5.88;;
44048;SDS011;29717;47.028;15.470;2023-05-10T08:23:21;9.98;;;5.88;;
44048;SDS011;29717;47.028;15.470;2023-05-10T08:25:48;7.10;;;5.35;;
44048;SDS011;29717;47.028;15.470;2023-05-10T08:28:15;7.43;;;6.38;;
44048;SDS011;29717;47.028;15.470;2023-05-10T08:30:42;8.02;;;5.57;;
44048;SDS011;29717;47.028;15.470;2023-05-10T08:33:08;6.97;;;5.75;;
44048;SDS011;29717;47.028;15.470;2023-05-10T08:35:35;6.43;;;5.68;;
44048;SDS011;29717;47.028;15.470;2023-05-10T08:38:02;9.07;;;6.03;;
44048;SDS011;29717;47.028;15.470;2023-05-10T08:40:30;7.32;;;6.18;;
44048;SDS011;29717;47.028;15.470;2023-05-10T08:42:58;7.20;;;5.95;;
44048;SDS011;29717;47.028;15.470;2023-05-10T08:45:25;8.13;;;6.22;;
44048;SDS011;29717;47.028;15.470;2023-05-10T08:47:56;8.57;;;5.80;;
44048;SDS011;29717;47.028;15.470;2023-05-10T08:50:23;7.25;;;5.80;;
44048;SDS011;29717;47.028;15.470;2023-05-10T08:52:51;4.10;;;3.70;;
44048;SDS011;29717;47.028;15.470;2023-05-10T08:55:19;4.93;;;4.10;;
44048;SDS011;29717;47.028;15.470;2023-05-10T08:57:47;5.88;;;4.25;;
44048;SDS011;29717;47.028;15.470;2023-05-10T09:00:15;5.57;;;4.30;;
44048;SDS011;29717;47.028;15.470;2023-05-10T09:02:42;6.68;;;4.82;;
44048;SDS011;29717;47.028;15.470;2023-05-10T09:05:11;5.28;;;4.65;;
44048;SDS011;29717;47.028;15.470;2023-05-10T09:07:41;5.65;;;4.38;;
44048;SDS011;29717;47.028;15.470;2023-05-10T09:10:08;6.30;;;4.07;;
44048;SDS011;29717;47.028;15.470;2023-05-10T09:12:35;5.03;;;4.53;;
44048;SDS011;29717;47.028;15.470;2023-05-10T09:15:03;5.82;;;4.35;;
44048;SDS011;29717;47.028;15.470;2023-05-10T09:17:30;5.03;;;4.45;;
44048;SDS011;29717;47.028;15.470;2023-05-10T09:19:57;4.13;;;3.72;;
44048;SDS011;29717;47.028;15.470;2023-05-10T09:22:25;6.70;;;4.55;;
44048;SDS011;29717;47.028;15.470;2023-05-10T09:25:03;6.28;;;5.15;;
44048;SDS011;29717;47.028;15.470;2023-05-10T09:27:29;7.60;;;4.50;;
44048;SDS011;29717;47.028;15.470;2023-05-10T09:29:56;6.55;;;5.25;;
44048;SDS011;29717;47.028;15.470;2023-05-10T09:32:26;5.93;;;4.55;;
44048;SDS011;29717;47.028;15.470;2023-05-10T09:35:05;4.88;;;4.40;;
44048;SDS011;29717;47.028;15.470;2023-05-10T09:37:32;5.53;;;4.93;;
44048;SDS011;29717;47.028;15.470;2023-05-10T09:39:59;5.40;;;4.30;;
44048;SDS011;29717;47.028;15.470;2023-05-10T09:42:26;4.20;;;3.90;;
44048;SDS011;29717;47.028;15.470;2023-05-10T09:44:52;5.75;;;4.15;;
44048;SDS011;29717;47.028;15.470;2023-05-10T09:47:19;4.80;;;4.40;;
44048;SDS011;29717;47.028;15.470;2023-05-10T09:49:50;7.82;;;4.70;;
44048;SDS011;29717;47.028;15.470;2023-05-10T09:52:17;5.00;;;4.15;;
44048;SDS011;29717;47.028;15.470;2023-05-10T09:54:45;4.65;;;4.25;;
44048;SDS011;29717;47.028;15.470;2023-05-10T09:57:18;4.85;;;3.60;;
44048;SDS011;29717;47.028;15.470;2023-05-10T09:59:46;4.30;;;3.90;;
44048;SDS011;29717;47.028;15.470;2023-05-10T10:02:13;4.93;;;3.58;;
44048;SDS011;29717;47.028;15.470;2023-05-10T10:04:40;5.05;;;4.57;;
44048;SDS011;29717;47.028;15.470;2023-05-10T10:07:09;5.00;;;4.60;;
44048;SDS011;29717;47.028;15.470;2023-05-10T10:09:36;5.00;;;4.50;;
44048;SDS011;29717;47.028;15.470;2023-05-10T10:12:04;4.72;;;4.32;;
44048;SDS011;29717;47.028;15.470;2023-05-10T10:14:31;5.95;;;5.07;;
44048;SDS011;29717;47.028;15.470;2023-05-10T10:16:58;4.70;;;4.10;;
44048;SDS011;29717;47.028;15.470;2023-05-10T10:19:26;4.53;;;4.07;;
44048;SDS011;29717;47.028;15.470;2023-05-10T10:21:53;4.30;;;3.90;;
44048;SDS011;29717;47.028;15.470;2023-05-10T10:24:21;5.38;;;4.15;;
44048;SDS011;29717;47.028;15.470;2023-05-10T10:26:48;4.97;;;4.07;;
44048;SDS011;29717;47.028;15.470;2023-05-10T10:29:18;4.32;;;3.88;;
44048;SDS011;29717;47.028;15.470;2023-05-10T10:31:48;4.38;;;3.97;;
44048;SDS011;29717;47.028;15.470;2023-05-10T10:34:22;4.28;;;3.65;;
44048;SDS011;29717;47.028;15.470;2023-05-10T10:36:51;5.75;;;4.20;;
44048;SDS011;29717;47.028;15.470;2023-05-10T10:39:18;4.03;;;3.58;;
44048;SDS011;29717;47.028;15.470;2023-05-10T10:41:51;4.68;;;4.18;;
44048;SDS011;29717;47.028;15.470;2023-05-10T10:44:35;5.80;;;4.20;;
44048;SDS011;29717;47.028;15.470;2023-05-10T10:47:07;12.18;;;5.05;;
44048;SDS011;29717;47.028;15.470;2023-05-10T10:49:43;6.05;;;4.40;;
44048;SDS011;29717;47.028;15.470;2023-05-10T10:52:20;6.10;;;4.57;;
44048;SDS011;29717;47.028;15.470;2023-05-10T10:54:51;6.45;;;4.30;;
44048;SDS011;29717;47.028;15.470;2023-05-10T10:57:20;5.93;;;4.75;;
44048;SDS011;29717;47.028;15.470;2023-05-10T10:59:48;33.00;;;7.90;;
44048;SDS011;29717;47.028;15.470;2023-05-10T11:07:59;5.20;;;4.63;;
44048;SDS011;29717;47.028;15.470;2023-05-10T11:10:27;4.75;;;4.32;;
44048;SDS011;29717;47.028;15.470;2023-05-10T11:13:00;5.45;;;4.90;;
44048;SDS011;29717;47.028;15.470;2023-05-10T11:15:30;5.85;;;4.97;;
44048;SDS011;29717;47.028;15.470;2023-05-10T11:17:57;6.50;;;4.88;;
44048;SDS011;29717;47.028;15.470;2023-05-10T11:20:27;10.43;;;5.10;;
44048;SDS011;29717;47.028;15.470;2023-05-10T11:23:10;21.80;;;6.47;;
44048;SDS011;29717;47.028;15.470;2023-05-10T11:25:40;9.15;;;4.93;;
44048;SDS011;29717;47.028;15.470;2023-05-10T11:28:08;10.93;;;5.90;;
44048;SDS011;29717;47.028;15.470;2023-05-10T11:30:35;6.30;;;5.70;;
44048;SDS011;29717;47.028;15.470;2023-05-10T11:33:02;5.40;;;4.90;;
44048;SDS011;29717;47.028;15.470;2023-05-10T11:35:29;6.80;;;4.80;;
44048;SDS011;29717;47.028;15.470;2023-05-10T11:37:56;6.13;;;4.68;;
44048;SDS011;29717;47.028;15.470;2023-05-10T11:40:23;6.00;;;4.68;;
44048;SDS011;29717;47.028;15.470;2023-05-10T11:42:50;4.90;;;4.50;;
44048;SDS011;29717;47.028;15.470;2023-05-10T11:45:18;5.43;;;4.10;;
44048;SDS011;29717;47.028;15.470;2023-05-10T11:47:48;4.88;;;4.30;;
44048;SDS011;29717;47.028;15.470;2023-05-10T11:50:15;6.20;;;4.63;;
44048;SDS011;29717;47.028;15.470;2023-05-10T11:52:42;6.70;;;4.90;;
44048;SDS011;29717;47.028;15.470;2023-05-10T11:55:09;5.30;;;4.75;;
44048;SDS011;29717;47.028;15.470;2023-05-10T11:57:35;6.93;;;4.93;;
44048;SDS011;29717;47.028;15.470;2023-05-10T12:00:04;5.30;;;4.80;;
44048;SDS011;29717;47.028;15.470;2023-05-10T12:02:32;4.55;;;4.15;;
44048;SDS011;29717;47.028;15.470;2023-05-10T12:04:59;7.43;;;4.50;;
44048;SDS011;29717;47.028;15.470;2023-05-10T12:07:26;4.80;;;4.40;;
44048;SDS011;29717;47.028;15.470;2023-05-10T12:10:03;4.85;;;4.38;;
44048;SDS011;29717;47.028;15.470;2023-05-10T12:12:35;4.68;;;4.28;;
44048;SDS011;29717;47.028;15.470;2023-05-10T12:15:01;4.72;;;4.20;;
44048;SDS011;29717;47.028;15.470;2023-05-10T12:17:29;4.32;;;3.92;;
44048;SDS011;29717;47.028;15.470;2023-05-10T12:20:00;5.28;;;3.92;;
44048;SDS011;29717;47.028;15.470;2023-05-10T12:22:39;4.88;;;4.10;;
44048;SDS011;29717;47.028;15.470;2023-05-10T12:25:08;5.55;;;3.92;;
44048;SDS011;29717;47.028;15.470;2023-05-10T12:27:35;4.18;;;3.72;;
44048;SDS011;29717;47.028;15.470;2023-05-10T12:30:02;4.55;;;4.15;;
44048;SDS011;29717;47.028;15.470;2023-05-10T12:32:39;4.50;;;4.10;;
44048;SDS011;29717;47.028;15.470;2023-05-10T12:35:07;4.70;;;4.30;;
44048;SDS011;29717;47.028;15.470;2023-05-10T12:37:35;5.78;;;4.10;;
44048;SDS011;29717;47.028;15.470;2023-05-10T12:40:05;4.18;;;3.78;;
44048;SDS011;29717;47.028;15.470;2023-05-10T12:42:33;5.35;;;4.43;;
44048;SDS011;29717;47.028;15.470;2023-05-10T12:45:01;4.50;;;3.75;;
44048;SDS011;29717;47.028;15.470;2023-05-10T12:47:27;4.88;;;4.35;;
44048;SDS011;29717;47.028;15.470;2023-05-10T12:49:54;5.38;;;4.75;;
44048;SDS011;29717;47.028;15.470;2023-05-10T12:52:26;6.50;;;4.30;;
44048;SDS011;29717;47.028;15.470;2023-05-10T12:54:53;5.38;;;4.70;;
44048;SDS011;29717;47.028;15.470;2023-05-10T12:57:20;4.75;;;4.15;;
44048;SDS011;29717;47.028;15.470;2023-05-10T12:59:47;6.25;;;3.90;;
44048;SDS011;29717;47.028;15.470;2023-05-10T13:02:13;4.47;;;4.07;;
44048;SDS011;29717;47.028;15.470;2023-05-10T13:04:43;6.38;;;4.47;;
44048;SDS011;29717;47.028;15.470;2023-05-10T13:07:10;7.70;;;4.10;;
44048;SDS011;29717;47.028;15.470;2023-05-10T13:09:38;4.22;;;3.65;;
44048;SDS011;29717;47.028;15.470;2023-05-10T13:12:05;9.93;;;4.82;;
44048;SDS011;29717;47.028;15.470;2023-05-10T13:14:32;5.38;;;4.22;;
44048;SDS011;29717;47.028;15.470;2023-05-10T13:16:58;4.22;;;3.83;;
44048;SDS011;29717;47.028;15.470;2023-05-10T13:19:25;4.20;;;3.80;;
44048;SDS011;29717;47.028;15.470;2023-05-10T13:21:52;4.25;;;3.92;;
44048;SDS011;29717;47.028;15.470;2023-05-10T13:24:19;4.85;;;4.35;;
44048;SDS011;29717;47.028;15.470;2023-05-10T13:26:47;5.13;;;4.63;;
44048;SDS011;29717;47.028;15.470;2023-05-10T13:29:14;5.03;;;4.57;;
44048;SDS011;29717;47.028;15.470;2023-05-10T13:31:43;5.63;;;4.80;;
44048;SDS011;29717;47.028;15.470;2023-05-10T13:34:10;6.63;;;4.53;;
44048;SDS011;29717;47.028;15.470;2023-05-10T13:36:37;5.45;;;4.85;;
44048;SDS011;29717;47.028;15.470;2023-05-10T13:39:03;7.55;;;5.05;;
44048;SDS011;29717;47.028;15.470;2023-05-10T13:41:30;7.25;;;5.28;;
44048;SDS011;29717;47.028;15.470;2023-05-10T13:43:59;4.93;;;4.53;;
44048;SDS011;29717;47.028;15.470;2023-05-10T13:46:25;17.38;;;5.85;;
44048;SDS011;29717;47.028;15.470;2023-05-10T13:48:52;5.88;;;5.22;;
44048;SDS011;29717;47.028;15.470;2023-05-10T13:51:19;5.93;;;5.15;;
44048;SDS011;29717;47.028;15.470;2023-05-10T13:53:46;5.20;;;4.72;;
44048;SDS011;29717;47.028;15.470;2023-05-10T13:56:13;7.20;;;5.28;;
44048;SDS011;29717;47.028;15.470;2023-05-10T13:58:40;8.40;;;4.82;;
44048;SDS011;29717;47.028;15.470;2023-05-10T14:01:09;5.10;;;4.53;;
44048;SDS011;29717;47.028;15.470;2023-05-10T14:03:37;4.60;;;4.20;;
44048;SDS011;29717;47.028;15.470;2023-05-10T14:06:04;5.05;;;4.55;;
44048;SDS011;29717;47.028;15.470;2023-05-10T14:08:32;5.45;;;3.88;;
44048;SDS011;29717;47.028;15.470;2023-05-10T14:10:59;5.00;;;4.20;;
44048;SDS011;29717;47.028;15.470;2023-05-10T14:13:26;4.72;;;3.80;;
44048;SDS011;29717;47.028;15.470;2023-05-10T14:15:53;4.70;;;3.90;;
44048;SDS011;29717;47.028;15.470;2023-05-10T14:18:22;5.15;;;4.65;;
44048;SDS011;29717;47.028;15.470;2023-05-10T14:20:48;4.50;;;4.10;;
44048;SDS011;29717;47.028;15.470;2023-05-10T14:23:15;64.10;;;13.32;;
44048;SDS011;29717;47.028;15.470;2023-05-10T14:25:42;23.35;;;6.13;;
44048;SDS011;29717;47.028;15.470;2023-05-10T14:28:09;4.85;;;4.32;;
44048;SDS011;29717;47.028;15.470;2023-05-10T14:30:37;4.60;;;4.20;;
44048;SDS011;29717;47.028;15.470;2023-05-10T14:33:03;4.18;;;3.88;;
44048;SDS011;29717;47.028;15.470;2023-05-10T14:35:32;5.03;;;3.90;;
44048;SDS011;29717;47.028;15.470;2023-05-10T14:37:58;4.65;;;4.25;;
44048;SDS011;29717;47.028;15.470;2023-05-10T14:40:25;5.75;;;3.60;;
44048;SDS011;29717;47.028;15.470;2023-05-10T14:42:52;4.55;;;3.90;;